sensor_id;sensor_type;location;lat;lon;timestamp;pressure;altitude;pressure_sealevel;temperature;humidity
19831;BME280;10076;52.008;4.708;2022-12-20T00:01:57;101295.53;;;10.75;100.00
19831;BME280;10076;52.008;4.708;2022-12-20T00:04:23;101305.13;;;10.90;100.00
19831;BME280;10076;52.008;4.708;2022-12-20T00:06:48;101297.78;;;10.81;100.00
19831;BME280;10076;52.008;4.708;2022-12-20T00:09:14;101291.81;;;10.92;100.00
19831;BME280;10076;52.008;4.708;2022-12-20T00:11:40;101295.78;;;10.85;100.00
19831;BME280;10076;52.008;4.708;2022-12-20T00:14:06;101289.66;;;10.84;100.00
19831;BME280;10076;52.008;4.708;2022-12-20T00:16:32;101287.88;;;10.85;100.00
19831;BME280;10076;52.008;4.708;2022-12-20T00:19:00;101286.97;;;10.98;100.00
19831;BME280;10076;52.008;4.708;2022-12-20T00:21:27;101291.00;;;11.03;100.00
19831;BME280;10076;52.008;4.708;2022-12-20T00:23:53;101290.88;;;10.93;100.00
19831;BME280;10076;52.008;4.708;2022-12-20T00:26:24;101293.84;;;11.00;100.00
19831;BME280;10076;52.008;4.708;2022-12-20T00:28:49;101296.56;;;11.13;100.00
19831;BME280;10076;52.008;4.708;2022-12-20T00:31:16;101297.06;;;11.05;100.00
19831;BME280;10076;52.008;4.708;2022-12-20T00:33:48;101285.91;;;11.00;100.00
19831;BME280;10076;52.008;4.708;2022-12-20T00:36:14;101297.34;;;11.01;100.00
19831;BME280;10076;52.008;4.708;2022-12-20T00:38:40;101298.19;;;11.01;100.00
19831;BME280;10076;52.008;4.708;2022-12-20T00:41:07;101291.13;;;11.02;100.00
19831;BME280;10076;52.008;4.708;2022-12-20T00:43:34;101288.91;;;11.08;100.00
19831;BME280;10076;52.008;4.708;2022-12-20T00:46:00;101280.59;;;11.14;100.00
19831;BME280;10076;52.008;4.708;2022-12-20T00:48:26;101284.03;;;11.02;100.00
19831;BME280;10076;52.008;4.708;2022-12-20T00:50:52;101280.47;;;11.16;100.00
19831;BME280;10076;52.008;4.708;2022-12-20T00:53:17;101265.41;;;11.04;100.00
19831;BME280;10076;52.008;4.708;2022-12-20T00:55:44;101261.00;;;11.04;100.00
19831;BME280;10076;52.008;4.708;2022-12-20T00:58:10;101265.38;;;10.92;100.00
19831;BME280;10076;52.008;4.708;2022-12-20T01:00:37;101254.94;;;10.90;100.00
19831;BME280;10076;52.008;4.708;2022-12-20T01:03:03;101259.41;;;11.02;100.00
19831;BME280;10076;52.008;4.708;2022-12-20T01:05:29;101259.19;;;11.05;100.00
19831;BME280;10076;52.008;4.708;2022-12-20T01:07:54;101247.19;;;10.87;100.00
19831;BME280;10076;52.008;4.708;2022-12-20T01:10:19;101251.50;;;11.02;100.00
19831;BME280;10076;52.008;4.708;2022-12-20T01:12:45;101241.34;;;11.08;100.00
19831;BME280;10076;52.008;4.708;2022-12-20T01:15:11;101224.53;;;11.09;100.00
19831;BME280;10076;52.008;4.708;2022-12-20T01:17:36;101237.72;;;10.97;100.00
19831;BME280;10076;52.008;4.708;2022-12-20T01:20:03;101248.78;;;10.90;100.00
19831;BME280;10076;52.008;4.708;2022-12-20T01:22:28;101252.06;;;10.93;100.00
19831;BME280;10076;52.008;4.708;2022-12-20T01:24:54;101243.09;;;10.96;100.00
19831;BME280;10076;52.008;4.708;2022-12-20T01:27:19;101236.41;;;11.16;100.00
19831;BME280;10076;52.008;4.708;2022-12-20T01:29:45;101232.25;;;11.12;100.00
19831;BME280;10076;52.008;4.708;2022-12-20T01:32:10;101235.72;;;11.00;100.00
19831;BME280;10076;52.008;4.708;2022-12-20T01:34:35;101240.66;;;10.93;100.00
19831;BME280;10076;52.008;4.708;2022-12-20T01:37:00;101239.22;;;11.01;100.00
19831;BME280;10076;52.008;4.708;2022-12-20T01:39:26;101238.97;;;10.92;100.00
19831;BME280;10076;52.008;4.708;2022-12-20T01:41:51;101238.34;;;11.00;100.00
19831;BME280;10076;52.008;4.708;2022-12-20T01:46:42;101221.50;;;11.28;100.00
19831;BME280;10076;52.008;4.708;2022-12-20T01:49:20;101210.75;;;11.31;100.00
19831;BME280;10076;52.008;4.708;2022-12-20T01:51:51;101204.38;;;11.21;100.00
19831;BME280;10076;52.008;4.708;2022-12-20T01:54:32;101215.56;;;11.12;100.00
19831;BME280;10076;52.008;4.708;2022-12-20T01:57:02;101224.56;;;11.22;100.00
19831;BME280;10076;52.008;4.708;2022-12-20T01:59:32;101217.03;;;11.16;100.00
19831;BME280;10076;52.008;4.708;2022-12-20T02:02:01;101210.94;;;11.15;100.00
19831;BME280;10076;52.008;4.708;2022-12-20T02:04:27;101205.28;;;11.07;100.00
19831;BME280;10076;52.008;4.708;2022-12-20T02:06:52;101209.34;;;11.13;100.00
19831;BME280;10076;52.008;4.708;2022-12-20T02:09:17;101205.94;;;11.11;100.00
19831;BME280;10076;52.008;4.708;2022-12-20T02:22:35;101213.47;;;11.17;100.00
19831;BME280;10076;52.008;4.708;2022-12-20T02:30:46;101213.31;;;10.94;100.00
19831;BME280;10076;52.008;4.708;2022-12-20T02:33:13;101213.69;;;11.14;100.00
19831;BME280;10076;52.008;4.708;2022-12-20T02:35:40;101205.34;;;11.20;100.00
19831;BME280;10076;52.008;4.708;2022-12-20T02:38:32;101196.03;;;11.27;100.00
19831;BME280;10076;52.008;4.708;2022-12-20T02:41:05;101205.00;;;11.24;100.00
19831;BME280;10076;52.008;4.708;2022-12-20T02:43:31;101203.53;;;11.20;100.00
19831;BME280;10076;52.008;4.708;2022-12-20T02:46:18;101195.91;;;11.16;100.00
19831;BME280;10076;52.008;4.708;2022-12-20T02:48:46;101188.91;;;11.15;100.00
19831;BME280;10076;52.008;4.708;2022-12-20T02:51:14;101192.13;;;11.20;100.00
19831;BME280;10076;52.008;4.708;2022-12-20T02:53:42;101191.06;;;11.35;100.00
19831;BME280;10076;52.008;4.708;2022-12-20T02:56:15;101189.91;;;11.26;100.00
19831;BME280;10076;52.008;4.708;2022-12-20T03:01:33;101187.75;;;11.06;100.00
19831;BME280;10076;52.008;4.708;2022-12-20T03:04:01;101191.25;;;11.19;100.00
19831;BME280;10076;52.008;4.708;2022-12-20T03:06:27;101182.16;;;11.11;100.00
19831;BME280;10076;52.008;4.708;2022-12-20T03:08:54;101188.50;;;11.08;100.00
19831;BME280;10076;52.008;4.708;2022-12-20T03:11:20;101199.03;;;10.96;100.00
19831;BME280;10076;52.008;4.708;2022-12-20T03:13:45;101192.94;;;11.08;100.00
19831;BME280;10076;52.008;4.708;2022-12-20T03:16:10;101182.78;;;11.02;100.00
19831;BME280;10076;52.008;4.708;2022-12-20T03:18:36;101184.47;;;11.03;100.00
19831;BME280;10076;52.008;4.708;2022-12-20T03:21:17;101193.88;;;10.95;100.00
19831;BME280;10076;52.008;4.708;2022-12-20T03:23:48;101179.78;;;10.82;100.00
19831;BME280;10076;52.008;4.708;2022-12-20T03:26:14;101173.03;;;10.90;100.00
19831;BME280;10076;52.008;4.708;2022-12-20T03:28:39;101177.25;;;10.93;100.00
19831;BME280;10076;52.008;4.708;2022-12-20T03:31:05;101185.94;;;10.95;100.00
19831;BME280;10076;52.008;4.708;2022-12-20T03:33:30;101174.44;;;11.08;100.00
19831;BME280;10076;52.008;4.708;2022-12-20T03:35:55;101170.50;;;11.01;100.00
19831;BME280;10076;52.008;4.708;2022-12-20T03:38:20;101172.09;;;11.03;100.00
19831;BME280;10076;52.008;4.708;2022-12-20T03:40:46;101173.81;;;11.04;100.00
19831;BME280;10076;52.008;4.708;2022-12-20T03:43:11;101168.44;;;10.80;100.00
19831;BME280;10076;52.008;4.708;2022-12-20T03:45:36;101161.38;;;10.80;100.00
19831;BME280;10076;52.008;4.708;2022-12-20T03:48:02;101159.69;;;10.79;100.00
19831;BME280;10076;52.008;4.708;2022-12-20T03:50:27;101157.00;;;11.05;100.00
19831;BME280;10076;52.008;4.708;2022-12-20T03:52:52;101157.13;;;11.16;100.00
19831;BME280;10076;52.008;4.708;2022-12-20T03:55:17;101164.41;;;11.13;100.00
19831;BME280;10076;52.008;4.708;2022-12-20T03:57:43;101169.88;;;10.98;100.00
19831;BME280;10076;52.008;4.708;2022-12-20T04:00:09;101168.63;;;11.03;100.00
19831;BME280;10076;52.008;4.708;2022-12-20T04:02:34;101182.50;;;11.19;100.00
19831;BME280;10076;52.008;4.708;2022-12-20T04:04:59;101164.09;;;11.30;100.00
19831;BME280;10076;52.008;4.708;2022-12-20T04:07:25;101168.44;;;11.31;100.00
19831;BME280;10076;52.008;4.708;2022-12-20T04:09:50;101163.78;;;11.47;100.00
19831;BME280;10076;52.008;4.708;2022-12-20T04:12:15;101157.47;;;11.62;100.00
19831;BME280;10076;52.008;4.708;2022-12-20T04:14:41;101151.53;;;11.71;100.00
19831;BME280;10076;52.008;4.708;2022-12-20T04:17:06;101146.03;;;11.49;100.00
19831;BME280;10076;52.008;4.708;2022-12-20T04:19:31;101157.34;;;11.75;100.00
19831;BME280;10076;52.008;4.708;2022-12-20T04:21:57;101145.63;;;11.67;100.00
19831;BME280;10076;52.008;4.708;2022-12-20T04:24:22;101153.25;;;11.72;100.00
19831;BME280;10076;52.008;4.708;2022-12-20T04:26:48;101155.38;;;11.67;100.00
19831;BME280;10076;52.008;4.708;2022-12-20T04:29:13;101142.50;;;11.85;100.00
19831;BME280;10076;52.008;4.708;2022-12-20T04:31:39;101145.31;;;11.72;100.00
19831;BME280;10076;52.008;4.708;2022-12-20T04:34:04;101154.06;;;11.84;100.00
19831;BME280;10076;52.008;4.708;2022-12-20T04:36:30;101151.31;;;11.86;100.00
19831;BME280;10076;52.008;4.708;2022-12-20T04:38:55;101151.72;;;11.92;100.00
19831;BME280;10076;52.008;4.708;2022-12-20T04:41:20;101159.97;;;12.00;100.00
19831;BME280;10076;52.008;4.708;2022-12-20T04:43:50;101158.91;;;11.90;100.00
19831;BME280;10076;52.008;4.708;2022-12-20T04:46:17;101152.47;;;11.94;100.00
19831;BME280;10076;52.008;4.708;2022-12-20T04:48:42;101150.38;;;11.87;100.00
19831;BME280;10076;52.008;4.708;2022-12-20T04:51:08;101140.50;;;12.01;100.00
19831;BME280;10076;52.008;4.708;2022-12-20T04:53:33;101134.38;;;11.88;100.00
19831;BME280;10076;52.008;4.708;2022-12-20T04:56:24;101134.25;;;11.90;100.00
19831;BME280;10076;52.008;4.708;2022-12-20T04:58:53;101114.28;;;11.86;100.00
19831;BME280;10076;52.008;4.708;2022-12-20T05:01:19;101121.47;;;11.84;100.00
19831;BME280;10076;52.008;4.708;2022-12-20T05:03:44;101150.47;;;11.85;100.00
19831;BME280;10076;52.008;4.708;2022-12-20T05:06:10;101129.91;;;11.89;100.00
19831;BME280;10076;52.008;4.708;2022-12-20T05:08:36;101108.31;;;11.95;100.00
19831;BME280;10076;52.008;4.708;2022-12-20T05:11:02;101106.00;;;11.90;100.00
19831;BME280;10076;52.008;4.708;2022-12-20T05:13:28;101098.47;;;11.84;100.00
19831;BME280;10076;52.008;4.708;2022-12-20T05:15:55;101106.84;;;11.78;100.00
19831;BME280;10076;52.008;4.708;2022-12-20T05:18:20;101093.13;;;11.86;100.00
19831;BME280;10076;52.008;4.708;2022-12-20T05:20:47;101078.47;;;11.93;100.00
19831;BME280;10076;52.008;4.708;2022-12-20T05:23:12;101084.09;;;11.88;100.00
19831;BME280;10076;52.008;4.708;2022-12-20T05:25:56;101077.41;;;11.95;100.00
19831;BME280;10076;52.008;4.708;2022-12-20T05:28:40;101077.19;;;11.98;100.00
19831;BME280;10076;52.008;4.708;2022-12-20T05:31:05;101077.81;;;12.02;100.00
19831;BME280;10076;52.008;4.708;2022-12-20T05:33:31;101078.19;;;12.08;100.00
19831;BME280;10076;52.008;4.708;2022-12-20T05:35:56;101070.19;;;11.97;100.00
19831;BME280;10076;52.008;4.708;2022-12-20T05:38:22;101079.00;;;12.21;100.00
19831;BME280;10076;52.008;4.708;2022-12-20T05:40:48;101076.06;;;12.13;100.00
19831;BME280;10076;52.008;4.708;2022-12-20T05:43:15;101074.59;;;12.09;100.00
19831;BME280;10076;52.008;4.708;2022-12-20T05:45:49;101069.81;;;11.91;100.00
19831;BME280;10076;52.008;4.708;2022-12-20T05:48:15;101077.81;;;12.02;100.00
19831;BME280;10076;52.008;4.708;2022-12-20T05:50:42;101077.19;;;11.98;100.00
19831;BME280;10076;52.008;4.708;2022-12-20T05:53:12;101067.03;;;11.92;100.00
19831;BME280;10076;52.008;4.708;2022-12-20T05:55:42;101054.75;;;11.91;100.00
19831;BME280;10076;52.008;4.708;2022-12-20T05:58:08;101066.34;;;12.14;100.00
19831;BME280;10076;52.008;4.708;2022-12-20T06:00:37;101078.00;;;11.99;100.00
19831;BME280;10076;52.008;4.708;2022-12-20T06:03:02;101071.75;;;12.12;100.00
19831;BME280;10076;52.008;4.708;2022-12-20T06:05:28;101072.81;;;12.10;100.00
19831;BME280;10076;52.008;4.708;2022-12-20T06:07:53;101077.69;;;12.03;100.00
19831;BME280;10076;52.008;4.708;2022-12-20T06:10:18;101080.91;;;12.19;100.00
19831;BME280;10076;52.008;4.708;2022-12-20T06:12:44;101071.00;;;12.10;100.00
19831;BME280;10076;52.008;4.708;2022-12-20T06:15:09;101058.53;;;12.00;100.00
19831;BME280;10076;52.008;4.708;2022-12-20T06:17:35;101054.44;;;12.19;100.00
19831;BME280;10076;52.008;4.708;2022-12-20T06:20:00;101047.94;;;12.12;100.00
19831;BME280;10076;52.008;4.708;2022-12-20T06:22:25;101057.03;;;12.08;100.00
19831;BME280;10076;52.008;4.708;2022-12-20T06:24:51;101053.41;;;12.09;100.00
19831;BME280;10076;52.008;4.708;2022-12-20T06:27:16;101049.78;;;11.99;100.00
19831;BME280;10076;52.008;4.708;2022-12-20T06:29:42;101054.13;;;11.88;100.00
19831;BME280;10076;52.008;4.708;2022-12-20T06:32:16;101045.66;;;11.95;100.00
19831;BME280;10076;52.008;4.708;2022-12-20T06:34:41;101044.97;;;12.04;100.00
19831;BME280;10076;52.008;4.708;2022-12-20T06:37:07;101051.09;;;12.05;100.00
19831;BME280;10076;52.008;4.708;2022-12-20T06:39:32;101059.91;;;12.05;100.00
19831;BME280;10076;52.008;4.708;2022-12-20T06:41:58;101068.16;;;11.77;100.00
19831;BME280;10076;52.008;4.708;2022-12-20T06:44:23;101056.38;;;11.81;100.00
19831;BME280;10076;52.008;4.708;2022-12-20T06:46:48;101046.81;;;11.91;100.00
19831;BME280;10076;52.008;4.708;2022-12-20T06:49:14;101048.50;;;11.92;100.00
19831;BME280;10076;52.008;4.708;2022-12-20T06:51:39;101045.31;;;11.76;100.00
19831;BME280;10076;52.008;4.708;2022-12-20T06:54:04;101040.03;;;11.64;100.00
19831;BME280;10076;52.008;4.708;2022-12-20T06:56:30;101048.00;;;11.87;100.00
19831;BME280;10076;52.008;4.708;2022-12-20T06:58:55;101058.34;;;11.90;100.00
19831;BME280;10076;52.008;4.708;2022-12-20T07:01:21;101047.13;;;11.99;100.00
19831;BME280;10076;52.008;4.708;2022-12-20T07:03:46;101045.56;;;11.84;100.00
19831;BME280;10076;52.008;4.708;2022-12-20T07:06:11;101050.41;;;11.90;100.00
19831;BME280;10076;52.008;4.708;2022-12-20T07:08:37;101053.31;;;11.87;100.00
19831;BME280;10076;52.008;4.708;2022-12-20T07:11:04;101058.97;;;12.06;100.00
19831;BME280;10076;52.008;4.708;2022-12-20T07:13:30;101055.19;;;11.85;100.00
19831;BME280;10076;52.008;4.708;2022-12-20T07:16:02;101058.09;;;12.06;100.00
19831;BME280;10076;52.008;4.708;2022-12-20T07:18:28;101067.22;;;12.02;100.00
19831;BME280;10076;52.008;4.708;2022-12-20T07:20:58;101068.09;;;11.90;100.00
19831;BME280;10076;52.008;4.708;2022-12-20T07:23:24;101062.94;;;11.88;100.00
19831;BME280;10076;52.008;4.708;2022-12-20T07:25:54;101061.16;;;11.76;100.00
19831;BME280;10076;52.008;4.708;2022-12-20T07:28:19;101069.09;;;11.76;100.00
19831;BME280;10076;52.008;4.708;2022-12-20T07:30:45;101068.00;;;11.91;100.00
19831;BME280;10076;52.008;4.708;2022-12-20T07:33:10;101064.56;;;11.66;100.00
19831;BME280;10076;52.008;4.708;2022-12-20T07:35:35;101071.59;;;11.90;100.00
19831;BME280;10076;52.008;4.708;2022-12-20T07:38:01;101058.22;;;11.69;100.00
19831;BME280;10076;52.008;4.708;2022-12-20T07:40:26;101060.16;;;11.67;100.00
19831;BME280;10076;52.008;4.708;2022-12-20T07:42:51;101071.38;;;11.58;100.00
19831;BME280;10076;52.008;4.708;2022-12-20T07:45:17;101065.44;;;11.67;100.00
19831;BME280;10076;52.008;4.708;2022-12-20T07:47:42;101066.91;;;11.71;100.00
19831;BME280;10076;52.008;4.708;2022-12-20T07:50:08;101070.19;;;11.74;100.00
19831;BME280;10076;52.008;4.708;2022-12-20T07:52:34;101068.59;;;11.59;100.00
19831;BME280;10076;52.008;4.708;2022-12-20T07:55:02;101059.28;;;11.66;100.00
19831;BME280;10076;52.008;4.708;2022-12-20T07:57:35;101063.06;;;11.74;100.00
19831;BME280;10076;52.008;4.708;2022-12-20T08:00:03;101076.66;;;11.58;100.00
19831;BME280;10076;52.008;4.708;2022-12-20T08:02:36;101067.34;;;11.65;100.00
19831;BME280;10076;52.008;4.708;2022-12-20T08:05:04;101065.44;;;11.67;100.00
19831;BME280;10076;52.008;4.708;2022-12-20T08:07:31;101079.63;;;11.53;100.00
19831;BME280;10076;52.008;4.708;2022-12-20T08:09:56;101081.19;;;11.56;100.00
19831;BME280;10076;52.008;4.708;2022-12-20T08:12:23;101081.19;;;11.56;100.00
19831;BME280;10076;52.008;4.708;2022-12-20T08:14:49;101071.31;;;11.70;100.00
19831;BME280;10076;52.008;4.708;2022-12-20T08:17:20;101080.88;;;11.73;100.00
19831;BME280;10076;52.008;4.708;2022-12-20T08:19:46;101076.03;;;11.54;100.00
19831;BME280;10076;52.008;4.708;2022-12-20T08:22:11;101065.97;;;11.59;100.00
19831;BME280;10076;52.008;4.708;2022-12-20T08:24:37;101068.72;;;11.58;100.00
19831;BME280;10076;52.008;4.708;2022-12-20T08:27:02;101062.47;;;11.59;100.00
19831;BME280;10076;52.008;4.708;2022-12-20T08:29:27;101071.25;;;11.59;100.00
19831;BME280;10076;52.008;4.708;2022-12-20T08:31:53;101059.09;;;11.57;100.00
19831;BME280;10076;52.008;4.708;2022-12-20T08:34:18;101067.47;;;11.86;100.00
19831;BME280;10076;52.008;4.708;2022-12-20T08:36:43;101058.34;;;11.67;100.00
19831;BME280;10076;52.008;4.708;2022-12-20T08:39:09;101062.81;;;11.90;100.00
19831;BME280;10076;52.008;4.708;2022-12-20T08:41:35;101072.81;;;12.10;100.00
19831;BME280;10076;52.008;4.708;2022-12-20T08:44:02;101062.38;;;11.96;100.00
19831;BME280;10076;52.008;4.708;2022-12-20T08:46:27;101062.31;;;11.85;100.00
19831;BME280;10076;52.008;4.708;2022-12-20T08:48:53;101062.94;;;11.88;100.00
19831;BME280;10076;52.008;4.708;2022-12-20T08:51:18;101066.28;;;11.90;100.00
19831;BME280;10076;52.008;4.708;2022-12-20T08:53:43;101071.97;;;11.73;100.00
19831;BME280;10076;52.008;4.708;2022-12-20T08:56:11;101071.00;;;11.74;100.00
19831;BME280;10076;52.008;4.708;2022-12-20T08:58:38;101074.75;;;11.60;100.00
19831;BME280;10076;52.008;4.708;2022-12-20T09:01:06;101067.09;;;11.80;100.00
19831;BME280;10076;52.008;4.708;2022-12-20T09:03:33;101069.66;;;11.69;100.00
19831;BME280;10076;52.008;4.708;2022-12-20T09:05:59;101069.66;;;11.69;100.00
19831;BME280;10076;52.008;4.708;2022-12-20T09:08:25;101088.91;;;11.71;100.00
19831;BME280;10076;52.008;4.708;2022-12-20T09:10:51;101067.97;;;11.68;100.00
19831;BME280;10076;52.008;4.708;2022-12-20T09:13:17;101076.44;;;11.61;100.00
19831;BME280;10076;52.008;4.708;2022-12-20T09:15:42;101066.03;;;11.70;100.00
19831;BME280;10076;52.008;4.708;2022-12-20T09:18:09;101071.97;;;11.73;100.00
19831;BME280;10076;52.008;4.708;2022-12-20T09:20:35;101084.81;;;11.55;100.00
19831;BME280;10076;52.008;4.708;2022-12-20T09:23:00;101086.38;;;11.70;100.00
19831;BME280;10076;52.008;4.708;2022-12-20T09:25:26;101094.63;;;11.65;100.00
19831;BME280;10076;52.008;4.708;2022-12-20T09:27:52;101098.75;;;11.69;100.00
19831;BME280;10076;52.008;4.708;2022-12-20T09:30:21;101097.78;;;11.82;100.00
19831;BME280;10076;52.008;4.708;2022-12-20T09:32:46;101085.72;;;11.66;100.00
19831;BME280;10076;52.008;4.708;2022-12-20T09:35:11;101089.94;;;11.81;100.00
19831;BME280;10076;52.008;4.708;2022-12-20T09:37:37;101089.84;;;11.82;100.00
19831;BME280;10076;52.008;4.708;2022-12-20T09:40:02;101086.59;;;11.67;100.00
19831;BME280;10076;52.008;4.708;2022-12-20T09:42:29;101093.34;;;11.71;100.00
19831;BME280;10076;52.008;4.708;2022-12-20T09:45:01;101086.38;;;11.70;100.00
19831;BME280;10076;52.008;4.708;2022-12-20T09:47:28;101088.47;;;11.77;100.00
19831;BME280;10076;52.008;4.708;2022-12-20T09:49:55;101084.22;;;11.87;100.00
19831;BME280;10076;52.008;4.708;2022-12-20T10:00:16;101080.38;;;11.91;100.00
19831;BME280;10076;52.008;4.708;2022-12-20T10:02:41;101081.03;;;11.94;100.00
19831;BME280;10076;52.008;4.708;2022-12-20T10:05:13;101082.78;;;12.06;100.00
19831;BME280;10076;52.008;4.708;2022-12-20T10:08:02;101089.22;;;12.02;100.00
19831;BME280;10076;52.008;4.708;2022-12-20T10:10:50;101085.34;;;11.95;100.00
19831;BME280;10076;52.008;4.708;2022-12-20T10:22:06;101076.59;;;11.82;100.00
19831;BME280;10076;52.008;4.708;2022-12-20T10:24:34;101081.91;;;11.82;100.00
19831;BME280;10076;52.008;4.708;2022-12-20T10:27:18;101077.47;;;11.71;100.00
19831;BME280;10076;52.008;4.708;2022-12-20T10:29:45;101074.66;;;11.84;100.00
19831;BME280;10076;52.008;4.708;2022-12-20T10:32:14;101072.59;;;11.77;100.00
19831;BME280;10076;52.008;4.708;2022-12-20T10:37:34;101065.13;;;11.94;100.00
19831;BME280;10076;52.008;4.708;2022-12-20T10:40:00;101063.19;;;12.09;100.00
19831;BME280;10076;52.008;4.708;2022-12-20T10:42:34;101073.16;;;11.93;100.00
19831;BME280;10076;52.008;4.708;2022-12-20T10:45:01;101068.44;;;11.85;100.00
19831;BME280;10076;52.008;4.708;2022-12-20T10:47:41;101065.34;;;11.91;100.00
19831;BME280;10076;52.008;4.708;2022-12-20T10:52:37;101071.31;;;11.82;100.00
19831;BME280;10076;52.008;4.708;2022-12-20T10:58:15;101069.81;;;11.78;100.00
19831;BME280;10076;52.008;4.708;2022-12-20T11:00:41;101062.59;;;11.93;100.00
19831;BME280;10076;52.008;4.708;2022-12-20T11:03:21;101062.88;;;12.01;100.00
19831;BME280;10076;52.008;4.708;2022-12-20T11:05:59;101060.13;;;12.02;100.00
19831;BME280;10076;52.008;4.708;2022-12-20T11:08:27;101069.19;;;11.87;100.00
19831;BME280;10076;52.008;4.708;2022-12-20T11:13:41;101055.94;;;11.87;100.00
19831;BME280;10076;52.008;4.708;2022-12-20T11:16:22;101054.13;;;12.00;100.00
19831;BME280;10076;52.008;4.708;2022-12-20T11:18:55;101059.47;;;11.75;100.00
19831;BME280;10076;52.008;4.708;2022-12-20T11:26:52;101053.06;;;11.90;100.00
19831;BME280;10076;52.008;4.708;2022-12-20T11:32:29;101059.47;;;12.11;100.00
19831;BME280;10076;52.008;4.708;2022-12-20T11:35:13;101052.78;;;11.82;100.00
19831;BME280;10076;52.008;4.708;2022-12-20T11:38:10;101054.81;;;12.02;100.00
19831;BME280;10076;52.008;4.708;2022-12-20T11:56:45;101048.13;;;12.09;100.00
19831;BME280;10076;52.008;4.708;2022-12-20T12:02:04;101039.97;;;12.12;100.00
19831;BME280;10076;52.008;4.708;2022-12-20T12:04:39;101039.06;;;12.01;100.00
19831;BME280;10076;52.008;4.708;2022-12-20T12:07:18;101033.69;;;12.13;100.00
19831;BME280;10076;52.008;4.708;2022-12-20T12:10:20;101032.03;;;12.12;100.00
19831;BME280;10076;52.008;4.708;2022-12-20T12:17:51;101033.19;;;12.08;100.00
19831;BME280;10076;52.008;4.708;2022-12-20T12:23:25;101036.25;;;12.15;100.00
19831;BME280;10076;52.008;4.708;2022-12-20T12:25:52;101039.00;;;12.13;100.00
19831;BME280;10076;52.008;4.708;2022-12-20T12:28:19;101034.03;;;12.32;100.00
19831;BME280;10076;52.008;4.708;2022-12-20T12:30:58;101035.41;;;12.14;100.00
19831;BME280;10076;52.008;4.708;2022-12-20T12:33:33;101037.78;;;12.06;100.00
19831;BME280;10076;52.008;4.708;2022-12-20T12:41:33;101034.91;;;12.09;100.00
19831;BME280;10076;52.008;4.708;2022-12-20T12:46:54;101042.84;;;12.09;100.00
19831;BME280;10076;52.008;4.708;2022-12-20T12:49:26;101039.00;;;12.13;100.00
19831;BME280;10076;52.008;4.708;2022-12-20T12:51:55;101041.59;;;12.26;100.00
19831;BME280;10076;52.008;4.708;2022-12-20T12:54:37;101044.69;;;12.20;100.00
19831;BME280;10076;52.008;4.708;2022-12-20T12:57:12;101036.34;;;12.13;100.00
19831;BME280;10076;52.008;4.708;2022-12-20T13:20:24;101031.06;;;12.13;100.00
19831;BME280;10076;52.008;4.708;2022-12-20T13:23:22;101041.59;;;12.02;100.00
19831;BME280;10076;52.008;4.708;2022-12-20T13:25:49;101031.06;;;12.13;100.00
19831;BME280;10076;52.008;4.708;2022-12-20T13:31:00;101033.16;;;12.21;100.00
19831;BME280;10076;52.008;4.708;2022-12-20T13:33:47;101029.47;;;12.11;100.00
19831;BME280;10076;52.008;4.708;2022-12-20T13:41:24;101020.94;;;12.07;100.00
19831;BME280;10076;52.008;4.708;2022-12-20T13:43:51;101024.44;;;12.08;100.00
19831;BME280;10076;52.008;4.708;2022-12-20T13:46:41;101023.81;;;12.04;100.00
19831;BME280;10076;52.008;4.708;2022-12-20T13:49:20;101016.19;;;12.00;100.00
19831;BME280;10076;52.008;4.708;2022-12-20T13:51:47;101012.22;;;11.94;100.00
19831;BME280;10076;52.008;4.708;2022-12-20T13:54:17;101018.81;;;12.12;100.00
19831;BME280;10076;52.008;4.708;2022-12-20T13:56:44;101010.03;;;12.23;100.00
19831;BME280;10076;52.008;4.708;2022-12-20T13:59:24;101019.13;;;12.08;100.00
19831;BME280;10076;52.008;4.708;2022-12-20T14:01:53;101026.28;;;12.18;100.00
19831;BME280;10076;52.008;4.708;2022-12-20T14:04:19;101031.19;;;12.12;100.00
19831;BME280;10076;52.008;4.708;2022-12-20T14:06:57;101030.22;;;12.13;100.00
19831;BME280;10076;52.008;4.708;2022-12-20T14:11:52;101027.19;;;12.06;100.00
19831;BME280;10076;52.008;4.708;2022-12-20T14:14:18;101032.03;;;12.12;100.00
19831;BME280;10076;52.008;4.708;2022-12-20T14:16:43;101034.94;;;12.20;100.00
19831;BME280;10076;52.008;4.708;2022-12-20T14:19:13;101039.06;;;12.24;100.00
19831;BME280;10076;52.008;4.708;2022-12-20T14:21:41;101032.88;;;12.13;100.00
19831;BME280;10076;52.008;4.708;2022-12-20T14:24:13;101034.94;;;12.20;100.00
19831;BME280;10076;52.008;4.708;2022-12-20T14:26:42;101037.72;;;12.19;100.00
19831;BME280;10076;52.008;4.708;2022-12-20T14:29:11;101046.09;;;12.13;100.00
19831;BME280;10076;52.008;4.708;2022-12-20T14:31:42;101036.34;;;12.13;100.00
19831;BME280;10076;52.008;4.708;2022-12-20T14:34:12;101035.19;;;12.17;100.00
19831;BME280;10076;52.008;4.708;2022-12-20T14:36:41;101034.78;;;12.11;100.00
19831;BME280;10076;52.008;4.708;2022-12-20T14:39:31;101032.50;;;12.06;100.00
19831;BME280;10076;52.008;4.708;2022-12-20T14:42:11;101032.06;;;12.00;100.00
19831;BME280;10076;52.008;4.708;2022-12-20T14:44:37;101019.47;;;12.03;100.00
19831;BME280;10076;52.008;4.708;2022-12-20T14:47:17;101019.63;;;12.13;100.00
19831;BME280;10076;52.008;4.708;2022-12-20T14:49:48;101021.84;;;12.19;100.00
19831;BME280;10076;52.008;4.708;2022-12-20T14:52:20;101017.81;;;12.13;100.00